sensor_id;sensor_type;location;lat;lon;timestamp;pressure;altitude;pressure_sealevel;temperature;humidity
35435;BME280;21556;55.782;37.528;2024-02-21T00:00:15;100594.97;;;-2.92;100.00
35435;BME280;21556;55.782;37.528;2024-02-21T00:02:48;100594.97;;;-2.61;100.00
35435;BME280;21556;55.782;37.528;2024-02-21T00:05:15;100590.84;;;-2.70;100.00
35435;BME280;21556;55.782;37.528;2024-02-21T00:07:41;100597.91;;;-2.87;100.00
35435;BME280;21556;55.782;37.528;2024-02-21T00:10:07;100594.69;;;-2.85;100.00
35435;BME280;21556;55.782;37.528;2024-02-21T00:12:34;100584.16;;;-2.98;100.00
35435;BME280;21556;55.782;37.528;2024-02-21T00:15:00;100585.22;;;-2.86;100.00
35435;BME280;21556;55.782;37.528;2024-02-21T00:17:26;100575.94;;;-2.74;100.00
35435;BME280;21556;55.782;37.528;2024-02-21T00:19:53;100579.44;;;-3.04;100.00
35435;BME280;21556;55.782;37.528;2024-02-21T00:22:19;100589.03;;;-3.22;100.00
35435;BME280;21556;55.782;37.528;2024-02-21T00:24:45;100574.94;;;-3.06;100.00
35435;BME280;21556;55.782;37.528;2024-02-21T00:27:11;100576.97;;;-3.02;100.00
35435;BME280;21556;55.782;37.528;2024-02-21T00:29:37;100586.06;;;-3.16;100.00
35435;BME280;21556;55.782;37.528;2024-02-21T00:32:03;100577.88;;;-3.02;100.00
35435;BME280;21556;55.782;37.528;2024-02-21T00:34:29;100587.25;;;-3.02;100.00
35435;BME280;21556;55.782;37.528;2024-02-21T00:36:56;100584.81;;;-3.71;100.00
35435;BME280;21556;55.782;37.528;2024-02-21T00:39:22;100579.63;;;-3.52;100.00
35435;BME280;21556;55.782;37.528;2024-02-21T00:41:48;100570.06;;;-3.34;100.00
35435;BME280;21556;55.782;37.528;2024-02-21T00:44:15;100568.09;;;-3.47;100.00
35435;BME280;21556;55.782;37.528;2024-02-21T00:46:41;100568.38;;;-3.33;100.00
35435;BME280;21556;55.782;37.528;2024-02-21T00:49:07;100561.47;;;-2.94;100.00
35435;BME280;21556;55.782;37.528;2024-02-21T00:51:33;100557.59;;;-2.99;100.00
35435;BME280;21556;55.782;37.528;2024-02-21T00:53:59;100559.00;;;-2.92;100.00
35435;BME280;21556;55.782;37.528;2024-02-21T00:56:27;100551.56;;;-2.99;100.00
35435;BME280;21556;55.782;37.528;2024-02-21T00:58:53;100560.59;;;-3.64;100.00
35435;BME280;21556;55.782;37.528;2024-02-21T01:01:23;100549.78;;;-3.41;100.00
35435;BME280;21556;55.782;37.528;2024-02-21T01:03:49;100551.91;;;-3.66;100.00
35435;BME280;21556;55.782;37.528;2024-02-21T01:06:16;100542.19;;;-3.09;100.00
35435;BME280;21556;55.782;37.528;2024-02-21T01:09:03;100546.34;;;-3.71;100.00
35435;BME280;21556;55.782;37.528;2024-02-21T01:11:30;100535.63;;;-3.05;100.00
35435;BME280;21556;55.782;37.528;2024-02-21T01:13:56;100532.56;;;-2.91;100.00
35435;BME280;21556;55.782;37.528;2024-02-21T01:16:22;100529.25;;;-2.90;100.00
35435;BME280;21556;55.782;37.528;2024-02-21T01:18:48;100531.28;;;-2.76;100.00
35435;BME280;21556;55.782;37.528;2024-02-21T01:21:14;100523.59;;;-2.96;100.00
35435;BME280;21556;55.782;37.528;2024-02-21T01:23:40;100523.84;;;-2.93;100.00
35435;BME280;21556;55.782;37.528;2024-02-21T01:26:06;100526.41;;;-2.93;100.00
35435;BME280;21556;55.782;37.528;2024-02-21T01:28:34;100520.63;;;-3.11;100.00
35435;BME280;21556;55.782;37.528;2024-02-21T01:31:01;100523.31;;;-2.89;100.00
35435;BME280;21556;55.782;37.528;2024-02-21T01:33:29;100515.31;;;-2.61;100.00
35435;BME280;21556;55.782;37.528;2024-02-21T01:36:04;100517.41;;;-2.88;100.00
35435;BME280;21556;55.782;37.528;2024-02-21T01:38:33;100524.22;;;-2.88;100.00
35435;BME280;21556;55.782;37.528;2024-02-21T01:40:59;100513.16;;;-2.87;100.00
35435;BME280;21556;55.782;37.528;2024-02-21T01:43:26;100516.22;;;-2.71;100.00
35435;BME280;21556;55.782;37.528;2024-02-21T01:45:54;100516.28;;;-3.32;100.00
35435;BME280;21556;55.782;37.528;2024-02-21T01:48:40;100518.72;;;-2.93;100.00
35435;BME280;21556;55.782;37.528;2024-02-21T01:51:06;100505.88;;;-3.13;100.00
35435;BME280;21556;55.782;37.528;2024-02-21T01:53:38;100509.34;;;-3.13;100.00
35435;BME280;21556;55.782;37.528;2024-02-21T01:56:08;100508.28;;;-2.84;100.00
35435;BME280;21556;55.782;37.528;2024-02-21T01:58:37;100503.13;;;-2.64;100.00
35435;BME280;21556;55.782;37.528;2024-02-21T02:01:03;100507.91;;;-2.89;100.00
35435;BME280;21556;55.782;37.528;2024-02-21T02:03:29;100508.19;;;-3.17;100.00
35435;BME280;21556;55.782;37.528;2024-02-21T02:05:56;100499.41;;;-2.78;100.00
35435;BME280;21556;55.782;37.528;2024-02-21T02:08:22;100492.34;;;-2.80;100.00
35435;BME280;21556;55.782;37.528;2024-02-21T02:10:48;100500.63;;;-3.05;100.00
35435;BME280;21556;55.782;37.528;2024-02-21T02:13:15;100505.25;;;-3.21;100.00
35435;BME280;21556;55.782;37.528;2024-02-21T02:15:48;100492.84;;;-2.74;100.00
35435;BME280;21556;55.782;37.528;2024-02-21T02:18:17;100495.16;;;-2.77;100.00
35435;BME280;21556;55.782;37.528;2024-02-21T02:20:44;100493.31;;;-3.10;100.00
35435;BME280;21556;55.782;37.528;2024-02-21T02:23:27;100493.19;;;-2.59;100.00
35435;BME280;21556;55.782;37.528;2024-02-21T02:25:54;100492.09;;;-2.41;100.00
35435;BME280;21556;55.782;37.528;2024-02-21T02:28:20;100505.06;;;-2.82;100.00
35435;BME280;21556;55.782;37.528;2024-02-21T02:30:47;100498.44;;;-3.00;100.00
35435;BME280;21556;55.782;37.528;2024-02-21T02:33:14;100500.91;;;-2.59;100.00
35435;BME280;21556;55.782;37.528;2024-02-21T02:35:40;100497.50;;;-2.91;100.00
35435;BME280;21556;55.782;37.528;2024-02-21T02:38:07;100493.47;;;-2.67;100.00
35435;BME280;21556;55.782;37.528;2024-02-21T02:40:34;100495.19;;;-2.35;100.00
35435;BME280;21556;55.782;37.528;2024-02-21T02:43:05;100495.75;;;-2.49;100.00
35435;BME280;21556;55.782;37.528;2024-02-21T02:45:32;100497.97;;;-2.64;100.00
35435;BME280;21556;55.782;37.528;2024-02-21T02:47:58;100494.81;;;-2.92;100.00
35435;BME280;21556;55.782;37.528;2024-02-21T02:50:25;100491.81;;;-2.76;100.00
35435;BME280;21556;55.782;37.528;2024-02-21T02:52:53;100493.28;;;-3.00;100.00
35435;BME280;21556;55.782;37.528;2024-02-21T02:55:19;100490.25;;;-2.54;100.00
35435;BME280;21556;55.782;37.528;2024-02-21T02:57:45;100493.16;;;-2.39;100.00
35435;BME280;21556;55.782;37.528;2024-02-21T03:00:14;100496.94;;;-2.66;100.00
35435;BME280;21556;55.782;37.528;2024-02-21T03:02:42;100498.25;;;-2.81;100.00
35435;BME280;21556;55.782;37.528;2024-02-21T03:05:17;100495.50;;;-2.62;100.00
35435;BME280;21556;55.782;37.528;2024-02-21T03:07:43;100488.72;;;-2.30;100.00
35435;BME280;21556;55.782;37.528;2024-02-21T03:10:10;100484.94;;;-2.45;100.00
35435;BME280;21556;55.782;37.528;2024-02-21T03:12:36;100487.66;;;-2.22;100.00
35435;BME280;21556;55.782;37.528;2024-02-21T03:15:04;100497.13;;;-2.43;100.00
35435;BME280;21556;55.782;37.528;2024-02-21T03:17:33;100495.09;;;-2.99;100.00
35435;BME280;21556;55.782;37.528;2024-02-21T03:20:02;100484.25;;;-2.32;100.00
35435;BME280;21556;55.782;37.528;2024-02-21T03:22:37;100482.97;;;-2.37;100.00
35435;BME280;21556;55.782;37.528;2024-02-21T03:25:04;100480.25;;;-2.29;100.00
35435;BME280;21556;55.782;37.528;2024-02-21T03:27:38;100485.91;;;-2.33;100.00
35435;BME280;21556;55.782;37.528;2024-02-21T03:30:05;100477.16;;;-2.25;100.00
35435;BME280;21556;55.782;37.528;2024-02-21T03:32:33;100486.19;;;-2.40;100.00
35435;BME280;21556;55.782;37.528;2024-02-21T03:35:00;100483.41;;;-2.43;100.00
35435;BME280;21556;55.782;37.528;2024-02-21T03:37:26;100479.44;;;-2.17;100.00
35435;BME280;21556;55.782;37.528;2024-02-21T03:39:54;100489.66;;;-2.82;100.00
35435;BME280;21556;55.782;37.528;2024-02-21T03:42:20;100477.69;;;-2.61;100.00
35435;BME280;21556;55.782;37.528;2024-02-21T03:44:46;100479.72;;;-2.25;100.00
35435;BME280;21556;55.782;37.528;2024-02-21T03:47:12;100473.75;;;-2.13;100.00
35435;BME280;21556;55.782;37.528;2024-02-21T03:49:39;100473.25;;;-2.20;100.00
35435;BME280;21556;55.782;37.528;2024-02-21T03:52:05;100469.84;;;-1.86;100.00
35435;BME280;21556;55.782;37.528;2024-02-21T03:54:35;100469.53;;;-2.23;100.00
35435;BME280;21556;55.782;37.528;2024-02-21T03:57:05;100476.97;;;-2.48;100.00
35435;BME280;21556;55.782;37.528;2024-02-21T03:59:31;100476.44;;;-1.90;100.00
35435;BME280;21556;55.782;37.528;2024-02-21T04:02:02;100469.69;;;-2.00;100.00
35435;BME280;21556;55.782;37.528;2024-02-21T04:04:37;100472.63;;;-1.73;100.00
35435;BME280;21556;55.782;37.528;2024-02-21T04:07:03;100480.44;;;-2.15;100.00
35435;BME280;21556;55.782;37.528;2024-02-21T04:09:35;100484.16;;;-2.44;100.00
35435;BME280;21556;55.782;37.528;2024-02-21T04:12:04;100478.31;;;-1.77;100.00
35435;BME280;21556;55.782;37.528;2024-02-21T04:14:31;100482.13;;;-2.16;100.00
35435;BME280;21556;55.782;37.528;2024-02-21T04:16:57;100482.22;;;-2.14;100.00
35435;BME280;21556;55.782;37.528;2024-02-21T04:19:24;100480.38;;;-2.05;100.00
35435;BME280;21556;55.782;37.528;2024-02-21T04:21:50;100476.63;;;-2.53;100.00
35435;BME280;21556;55.782;37.528;2024-02-21T04:24:16;100494.75;;;-2.29;100.00
35435;BME280;21556;55.782;37.528;2024-02-21T04:26:51;100483.69;;;-1.96;100.00
35435;BME280;21556;55.782;37.528;2024-02-21T04:29:18;100482.13;;;-2.58;100.00
35435;BME280;21556;55.782;37.528;2024-02-21T04:31:47;100486.84;;;-2.85;100.00
35435;BME280;21556;55.782;37.528;2024-02-21T04:34:13;100483.41;;;-2.43;100.00
35435;BME280;21556;55.782;37.528;2024-02-21T04:36:42;100484.09;;;-2.66;100.00
35435;BME280;21556;55.782;37.528;2024-02-21T04:39:09;100489.28;;;-2.44;100.00
35435;BME280;21556;55.782;37.528;2024-02-21T04:41:36;100483.13;;;-2.99;100.00
35435;BME280;21556;55.782;37.528;2024-02-21T04:44:02;100491.88;;;-3.07;100.00
35435;BME280;21556;55.782;37.528;2024-02-21T04:46:29;100482.47;;;-2.44;100.00
35435;BME280;21556;55.782;37.528;2024-02-21T04:48:56;100484.03;;;-2.46;100.00
35435;BME280;21556;55.782;37.528;2024-02-21T04:51:57;100480.47;;;-2.26;100.00
35435;BME280;21556;55.782;37.528;2024-02-21T04:54:32;100494.44;;;-2.86;100.00
35435;BME280;21556;55.782;37.528;2024-02-21T04:56:58;100484.31;;;-2.53;100.00
35435;BME280;21556;55.782;37.528;2024-02-21T04:59:24;100478.88;;;-2.35;100.00
35435;BME280;21556;55.782;37.528;2024-02-21T05:01:53;100483.28;;;-2.23;100.00
35435;BME280;21556;55.782;37.528;2024-02-21T05:04:19;100473.47;;;-2.06;100.00
35435;BME280;21556;55.782;37.528;2024-02-21T05:06:45;100487.59;;;-2.11;100.00
35435;BME280;21556;55.782;37.528;2024-02-21T05:09:12;100470.78;;;-2.18;100.00
35435;BME280;21556;55.782;37.528;2024-02-21T05:11:38;100478.22;;;-1.89;100.00
35435;BME280;21556;55.782;37.528;2024-02-21T05:14:04;100473.41;;;-1.74;100.00
35435;BME280;21556;55.782;37.528;2024-02-21T05:16:31;100477.38;;;-2.22;100.00
35435;BME280;21556;55.782;37.528;2024-02-21T05:19:00;100479.19;;;-1.77;100.00
35435;BME280;21556;55.782;37.528;2024-02-21T05:21:46;100483.59;;;-2.08;100.00
35435;BME280;21556;55.782;37.528;2024-02-21T05:24:25;100481.69;;;-2.32;100.00
35435;BME280;21556;55.782;37.528;2024-02-21T05:27:40;100482.53;;;-2.54;100.00
35435;BME280;21556;55.782;37.528;2024-02-21T05:30:38;100488.16;;;-1.94;100.00
35435;BME280;21556;55.782;37.528;2024-02-21T05:33:07;100481.91;;;-2.29;100.00
35435;BME280;21556;55.782;37.528;2024-02-21T05:35:34;100487.25;;;-2.16;100.00
35435;BME280;21556;55.782;37.528;2024-02-21T05:38:00;100487.56;;;-2.01;100.00
35435;BME280;21556;55.782;37.528;2024-02-21T05:40:31;100479.78;;;-2.13;100.00
35435;BME280;21556;55.782;37.528;2024-02-21T05:42:58;100483.44;;;-1.77;100.00
35435;BME280;21556;55.782;37.528;2024-02-21T05:45:24;100474.09;;;-1.65;100.00
35435;BME280;21556;55.782;37.528;2024-02-21T05:47:50;100484.25;;;-1.44;100.00
35435;BME280;21556;55.782;37.528;2024-02-21T05:50:18;100475.84;;;-1.76;100.00
35435;BME280;21556;55.782;37.528;2024-02-21T05:52:44;100488.41;;;-1.90;100.00
35435;BME280;21556;55.782;37.528;2024-02-21T05:55:11;100490.13;;;-1.79;100.00
35435;BME280;21556;55.782;37.528;2024-02-21T05:57:39;100487.78;;;-2.20;100.00
35435;BME280;21556;55.782;37.528;2024-02-21T06:00:06;100487.19;;;-1.62;100.00
35435;BME280;21556;55.782;37.528;2024-02-21T06:02:38;100487.16;;;-1.96;100.00
35435;BME280;21556;55.782;37.528;2024-02-21T06:05:04;100488.28;;;-1.92;100.00
35435;BME280;21556;55.782;37.528;2024-02-21T06:07:35;100493.25;;;-2.05;100.00
35435;BME280;21556;55.782;37.528;2024-02-21T06:10:02;100489.03;;;-1.49;100.00
35435;BME280;21556;55.782;37.528;2024-02-21T06:12:30;100481.53;;;-1.80;100.00
35435;BME280;21556;55.782;37.528;2024-02-21T06:14:59;100478.72;;;-1.49;100.00
35435;BME280;21556;55.782;37.528;2024-02-21T06:17:25;100490.94;;;-1.47;100.00
35435;BME280;21556;55.782;37.528;2024-02-21T06:19:51;100475.66;;;-1.89;100.00
35435;BME280;21556;55.782;37.528;2024-02-21T06:22:47;100473.41;;;-1.40;100.00
35435;BME280;21556;55.782;37.528;2024-02-21T06:25:20;100473.56;;;-1.15;100.00
35435;BME280;21556;55.782;37.528;2024-02-21T06:27:46;100477.72;;;-1.51;100.00
35435;BME280;21556;55.782;37.528;2024-02-21T06:30:18;100477.78;;;-1.28;100.00
35435;BME280;21556;55.782;37.528;2024-02-21T06:32:47;100478.75;;;-1.71;100.00
35435;BME280;21556;55.782;37.528;2024-02-21T06:35:21;100483.63;;;-1.30;100.00
35435;BME280;21556;55.782;37.528;2024-02-21T06:37:47;100481.47;;;-1.70;100.00
35435;BME280;21556;55.782;37.528;2024-02-21T06:40:23;100482.84;;;-1.29;100.00
35435;BME280;21556;55.782;37.528;2024-02-21T06:42:59;100483.72;;;-1.29;100.00
35435;BME280;21556;55.782;37.528;2024-02-21T06:45:28;100480.28;;;-1.17;100.00
35435;BME280;21556;55.782;37.528;2024-02-21T06:47:56;100477.59;;;-1.31;100.00
35435;BME280;21556;55.782;37.528;2024-02-21T06:50:22;100481.19;;;-1.51;100.00
35435;BME280;21556;55.782;37.528;2024-02-21T06:52:48;100480.16;;;-1.31;100.00
35435;BME280;21556;55.782;37.528;2024-02-21T06:55:17;100468.25;;;-1.40;100.00
35435;BME280;21556;55.782;37.528;2024-02-21T06:57:46;100464.41;;;-1.12;100.00
35435;BME280;21556;55.782;37.528;2024-02-21T07:00:14;100472.13;;;-1.46;100.00
35435;BME280;21556;55.782;37.528;2024-02-21T07:02:49;100482.13;;;-1.38;100.00
35435;BME280;21556;55.782;37.528;2024-02-21T07:05:15;100477.06;;;-0.91;100.00
35435;BME280;21556;55.782;37.528;2024-02-21T07:07:41;100476.75;;;-1.41;100.00
35435;BME280;21556;55.782;37.528;2024-02-21T07:10:08;100461.03;;;-0.99;100.00
35435;BME280;21556;55.782;37.528;2024-02-21T07:12:34;100464.97;;;-1.16;100.00
35435;BME280;21556;55.782;37.528;2024-02-21T07:15:02;100462.50;;;-1.03;100.00
35435;BME280;21556;55.782;37.528;2024-02-21T07:20:23;100459.34;;;-1.22;100.00
35435;BME280;21556;55.782;37.528;2024-02-21T07:22:50;100457.56;;;-1.11;100.00
35435;BME280;21556;55.782;37.528;2024-02-21T07:25:16;100461.84;;;-1.00;100.00
35435;BME280;21556;55.782;37.528;2024-02-21T07:27:48;100465.88;;;-0.92;100.00
35435;BME280;21556;55.782;37.528;2024-02-21T07:30:14;100465.22;;;-1.35;100.00
35435;BME280;21556;55.782;37.528;2024-02-21T07:32:41;100460.78;;;-1.37;100.00
35435;BME280;21556;55.782;37.528;2024-02-21T07:35:07;100465.63;;;-1.18;100.00
35435;BME280;21556;55.782;37.528;2024-02-21T07:37:38;100451.53;;;-1.00;100.00
35435;BME280;21556;55.782;37.528;2024-02-21T07:40:05;100458.94;;;-0.93;100.00
35435;BME280;21556;55.782;37.528;2024-02-21T07:42:32;100453.31;;;-0.40;100.00
35435;BME280;21556;55.782;37.528;2024-02-21T07:44:58;100452.22;;;-0.67;100.00
35435;BME280;21556;55.782;37.528;2024-02-21T07:47:27;100458.56;;;-0.27;100.00
35435;BME280;21556;55.782;37.528;2024-02-21T07:49:53;100445.94;;;0.01;100.00
35435;BME280;21556;55.782;37.528;2024-02-21T07:52:19;100455.88;;;-0.40;100.00
35435;BME280;21556;55.782;37.528;2024-02-21T07:54:45;100457.81;;;-0.50;100.00
35435;BME280;21556;55.782;37.528;2024-02-21T07:57:11;100449.09;;;-0.03;100.00
35435;BME280;21556;55.782;37.528;2024-02-21T07:59:39;100450.25;;;-0.23;100.00
35435;BME280;21556;55.782;37.528;2024-02-21T08:02:05;100443.22;;;0.11;100.00
35435;BME280;21556;55.782;37.528;2024-02-21T08:04:38;100439.13;;;0.65;100.00
35435;BME280;21556;55.782;37.528;2024-02-21T08:07:04;100427.91;;;0.51;100.00
35435;BME280;21556;55.782;37.528;2024-02-21T08:09:30;100435.34;;;0.60;100.00
35435;BME280;21556;55.782;37.528;2024-02-21T08:11:58;100433.44;;;1.09;100.00
35435;BME280;21556;55.782;37.528;2024-02-21T08:14:27;100425.31;;;1.29;100.00
35435;BME280;21556;55.782;37.528;2024-02-21T08:16:53;100418.06;;;1.24;100.00
35435;BME280;21556;55.782;37.528;2024-02-21T08:19:20;100416.09;;;2.44;100.00
35435;BME280;21556;55.782;37.528;2024-02-21T08:21:49;100408.50;;;3.52;100.00
35435;BME280;21556;55.782;37.528;2024-02-21T08:24:15;100415.81;;;2.69;100.00
35435;BME280;21556;55.782;37.528;2024-02-21T08:26:41;100415.88;;;1.84;100.00
35435;BME280;21556;55.782;37.528;2024-02-21T08:29:08;100419.06;;;1.80;100.00
35435;BME280;21556;55.782;37.528;2024-02-21T08:31:41;100424.91;;;2.04;100.00
35435;BME280;21556;55.782;37.528;2024-02-21T08:34:10;100426.88;;;2.08;100.00
35435;BME280;21556;55.782;37.528;2024-02-21T08:36:42;100424.31;;;2.23;100.00
35435;BME280;21556;55.782;37.528;2024-02-21T08:39:11;100426.91;;;2.51;100.00
35435;BME280;21556;55.782;37.528;2024-02-21T08:41:41;100421.69;;;3.40;100.00
35435;BME280;21556;55.782;37.528;2024-02-21T08:44:12;100421.66;;;3.24;100.00
35435;BME280;21556;55.782;37.528;2024-02-21T08:46:41;100417.97;;;2.76;100.00
35435;BME280;21556;55.782;37.528;2024-02-21T08:49:12;100418.41;;;3.28;100.00
35435;BME280;21556;55.782;37.528;2024-02-21T08:51:43;100419.06;;;2.94;100.00
35435;BME280;21556;55.782;37.528;2024-02-21T08:54:09;100426.38;;;2.72;100.00
35435;BME280;21556;55.782;37.528;2024-02-21T08:56:36;100413.56;;;1.61;100.00
35435;BME280;21556;55.782;37.528;2024-02-21T08:59:05;100415.59;;;1.80;100.00
35435;BME280;21556;55.782;37.528;2024-02-21T09:01:34;100415.25;;;2.02;100.00
35435;BME280;21556;55.782;37.528;2024-02-21T09:04:00;100429.38;;;1.39;100.00
35435;BME280;21556;55.782;37.528;2024-02-21T09:06:28;100423.50;;;1.55;100.00
35435;BME280;21556;55.782;37.528;2024-02-21T09:08:56;100415.81;;;1.69;100.00
35435;BME280;21556;55.782;37.528;2024-02-21T09:11:23;100413.06;;;1.40;100.00
35435;BME280;21556;55.782;37.528;2024-02-21T09:13:49;100419.03;;;0.99;100.00
35435;BME280;21556;55.782;37.528;2024-02-21T09:16:16;100408.59;;;1.37;100.00
35435;BME280;21556;55.782;37.528;2024-02-21T09:18:42;100408.78;;;1.54;100.00
35435;BME280;21556;55.782;37.528;2024-02-21T09:21:08;100410.63;;;1.83;100.00
35435;BME280;21556;55.782;37.528;2024-02-21T09:23:37;100396.84;;;2.25;100.00
35435;BME280;21556;55.782;37.528;2024-02-21T09:26:05;100405.97;;;2.05;100.00
35435;BME280;21556;55.782;37.528;2024-02-21T09:28:33;100395.69;;;2.07;100.00
35435;BME280;21556;55.782;37.528;2024-02-21T09:31:02;100392.66;;;1.58;100.00
35435;BME280;21556;55.782;37.528;2024-02-21T09:33:28;100402.19;;;1.59;100.00
35435;BME280;21556;55.782;37.528;2024-02-21T09:35:57;100395.16;;;1.56;100.00
35435;BME280;21556;55.782;37.528;2024-02-21T09:38:23;100401.72;;;1.38;100.00
35435;BME280;21556;55.782;37.528;2024-02-21T09:41:17;100393.66;;;1.60;100.00
35435;BME280;21556;55.782;37.528;2024-02-21T09:43:46;100398.16;;;1.90;100.00
35435;BME280;21556;55.782;37.528;2024-02-21T09:46:19;100391.50;;;1.00;100.00
35435;BME280;21556;55.782;37.528;2024-02-21T09:51:51;100390.00;;;1.43;100.00
35435;BME280;21556;55.782;37.528;2024-02-21T09:54:18;100393.28;;;1.40;100.00
35435;BME280;21556;55.782;37.528;2024-02-21T09:56:49;100383.47;;;1.35;100.00
35435;BME280;21556;55.782;37.528;2024-02-21T09:59:19;100393.16;;;1.52;100.00
35435;BME280;21556;55.782;37.528;2024-02-21T10:02:14;100384.22;;;1.34;100.00
35435;BME280;21556;55.782;37.528;2024-02-21T10:04:42;100397.44;;;0.72;100.00
35435;BME280;21556;55.782;37.528;2024-02-21T10:07:17;100394.16;;;0.75;100.00
35435;BME280;21556;55.782;37.528;2024-02-21T10:10:04;100395.09;;;0.50;100.00
35435;BME280;21556;55.782;37.528;2024-02-21T10:12:31;100412.72;;;0.31;100.00
35435;BME280;21556;55.782;37.528;2024-02-21T10:15:05;100389.13;;;0.13;100.00
35435;BME280;21556;55.782;37.528;2024-02-21T10:17:32;100390.41;;;-0.31;100.00
35435;BME280;21556;55.782;37.528;2024-02-21T10:20:08;100386.47;;;0.50;100.00
35435;BME280;21556;55.782;37.528;2024-02-21T10:22:35;100403.97;;;0.04;100.00
35435;BME280;21556;55.782;37.528;2024-02-21T10:25:12;100388.31;;;0.77;100.00
35435;BME280;21556;55.782;37.528;2024-02-21T10:27:39;100392.50;;;0.37;100.00
35435;BME280;21556;55.782;37.528;2024-02-21T10:30:08;100395.03;;;0.23;100.00
35435;BME280;21556;55.782;37.528;2024-02-21T10:32:50;100383.13;;;0.26;100.00
35435;BME280;21556;55.782;37.528;2024-02-21T10:35:30;100391.00;;;0.65;100.00
35435;BME280;21556;55.782;37.528;2024-02-21T10:38:02;100399.97;;;0.45;100.00
35435;BME280;21556;55.782;37.528;2024-02-21T10:40:32;100385.38;;;0.21;100.00
35435;BME280;21556;55.782;37.528;2024-02-21T10:43:00;100384.56;;;0.47;100.00
35435;BME280;21556;55.782;37.528;2024-02-21T10:45:35;100382.19;;;0.37;100.00
35435;BME280;21556;55.782;37.528;2024-02-21T10:48:13;100377.53;;;0.44;100.00
35435;BME280;21556;55.782;37.528;2024-02-21T10:53:32;100377.06;;;0.25;100.00
35435;BME280;21556;55.782;37.528;2024-02-21T10:56:11;100375.41;;;0.01;100.00
35435;BME280;21556;55.782;37.528;2024-02-21T10:58:41;100389.50;;;0.06;100.00
35435;BME280;21556;55.782;37.528;2024-02-21T11:01:12;100381.09;;;0.46;100.00
35435;BME280;21556;55.782;37.528;2024-02-21T11:03:44;100375.19;;;0.36;100.00
35435;BME280;21556;55.782;37.528;2024-02-21T11:10:29;100373.63;;;0.38;100.00
35435;BME280;21556;55.782;37.528;2024-02-21T11:13:09;100373.41;;;1.00;100.00
35435;BME280;21556;55.782;37.528;2024-02-21T11:15:36;100364.63;;;0.44;100.00
35435;BME280;21556;55.782;37.528;2024-02-21T11:18:02;100375.56;;;0.15;100.00
35435;BME280;21556;55.782;37.528;2024-02-21T11:20:35;100357.38;;;0.52;100.00
35435;BME280;21556;55.782;37.528;2024-02-21T11:23:02;100358.28;;;-0.11;100.00
35435;BME280;21556;55.782;37.528;2024-02-21T11:25:29;100354.00;;;0.53;100.00
35435;BME280;21556;55.782;37.528;2024-02-21T11:30:48;100359.81;;;-0.38;100.00
35435;BME280;21556;55.782;37.528;2024-02-21T11:33:44;100365.81;;;-0.14;100.00
35435;BME280;21556;55.782;37.528;2024-02-21T11:36:25;100358.97;;;0.12;100.00
35435;BME280;21556;55.782;37.528;2024-02-21T11:39:14;100350.28;;;-0.02;100.00
35435;BME280;21556;55.782;37.528;2024-02-21T11:41:42;100338.34;;;0.25;100.00
35435;BME280;21556;55.782;37.528;2024-02-21T11:44:12;100350.47;;;0.01;100.00
35435;BME280;21556;55.782;37.528;2024-02-21T11:46:44;100344.66;;;0.42;100.00
35435;BME280;21556;55.782;37.528;2024-02-21T11:49:15;100337.16;;;-0.05;100.00
35435;BME280;21556;55.782;37.528;2024-02-21T11:51:44;100339.13;;;0.24;100.00
35435;BME280;21556;55.782;37.528;2024-02-21T11:54:14;100336.25;;;0.19;100.00
35435;BME280;21556;55.782;37.528;2024-02-21T11:56:42;100334.78;;;-0.02;100.00
35435;BME280;21556;55.782;37.528;2024-02-21T11:59:09;100336.94;;;0.17;100.00
35435;BME280;21556;55.782;37.528;2024-02-21T12:01:37;100333.31;;;0.02;100.00
35435;BME280;21556;55.782;37.528;2024-02-21T12:04:06;100343.03;;;-0.44;100.00
35435;BME280;21556;55.782;37.528;2024-02-21T12:06:36;100338.31;;;-0.13;100.00
35435;BME280;21556;55.782;37.528;2024-02-21T12:09:18;100332.47;;;-0.47;100.00
35435;BME280;21556;55.782;37.528;2024-02-21T12:11:57;100331.69;;;-0.35;100.00
35435;BME280;21556;55.782;37.528;2024-02-21T12:14:29;100331.84;;;0.05;100.00
35435;BME280;21556;55.782;37.528;2024-02-21T12:16:56;100332.75;;;-0.56;100.00
35435;BME280;21556;55.782;37.528;2024-02-21T12:19:32;100331.69;;;-0.10;100.00
35435;BME280;21556;55.782;37.528;2024-02-21T12:22:16;100326.69;;;-0.20;100.00
35435;BME280;21556;55.782;37.528;2024-02-21T12:24:42;100347.50;;;-0.42;100.00
35435;BME280;21556;55.782;37.528;2024-02-21T12:27:13;100324.00;;;-0.46;100.00
35435;BME280;21556;55.782;37.528;2024-02-21T12:29:41;100321.16;;;-0.38;100.00
35435;BME280;21556;55.782;37.528;2024-02-21T12:32:07;100321.31;;;-0.60;100.00
35435;BME280;21556;55.782;37.528;2024-02-21T12:34:34;100318.59;;;-0.13;100.00
35435;BME280;21556;55.782;37.528;2024-02-21T12:37:02;100320.50;;;-0.22;100.00
35435;BME280;21556;55.782;37.528;2024-02-21T12:39:32;100310.69;;;-0.64;100.00
35435;BME280;21556;55.782;37.528;2024-02-21T12:41:59;100323.38;;;-0.31;100.00
35435;BME280;21556;55.782;37.528;2024-02-21T12:44:41;100318.56;;;-0.38;100.00
35435;BME280;21556;55.782;37.528;2024-02-21T12:47:35;100309.16;;;-0.12;100.00
35435;BME280;21556;55.782;37.528;2024-02-21T12:50:02;100315.94;;;-0.26;100.00
35435;BME280;21556;55.782;37.528;2024-02-21T12:52:30;100319.59;;;-0.36;100.00
35435;BME280;21556;55.782;37.528;2024-02-21T12:55:04;100318.50;;;-0.14;100.00
35435;BME280;21556;55.782;37.528;2024-02-21T12:57:31;100323.09;;;-0.59;100.00
35435;BME280;21556;55.782;37.528;2024-02-21T13:00:00;100317.50;;;-0.53;100.00